sensor_id;sensor_type;location;lat;lon;timestamp;pressure;altitude;pressure_sealevel;temperature;humidity
26376;BME280;30544;42.196;24.336;2023-02-12T00:00:05;100210.81;;;0.63;48.14
26376;BME280;30544;42.196;24.336;2023-02-12T00:02:32;100210.19;;;0.69;47.44
26376;BME280;30544;42.196;24.336;2023-02-12T00:05:01;100209.88;;;0.72;46.67
26376;BME280;30544;42.196;24.336;2023-02-12T00:07:29;100215.34;;;0.72;46.62
26376;BME280;30544;42.196;24.336;2023-02-12T00:09:55;100212.19;;;0.67;47.76
26376;BME280;30544;42.196;24.336;2023-02-12T00:12:22;100215.44;;;0.63;47.71
26376;BME280;30544;42.196;24.336;2023-02-12T00:14:49;100210.66;;;0.39;48.34
26376;BME280;30544;42.196;24.336;2023-02-12T00:17:16;100213.69;;;0.36;49.07
26376;BME280;30544;42.196;24.336;2023-02-12T00:19:42;100199.56;;;0.40;48.75
26376;BME280;30544;42.196;24.336;2023-02-12T00:22:10;100206.94;;;0.22;49.82
26376;BME280;30544;42.196;24.336;2023-02-12T00:24:37;100198.06;;;0.20;50.10
26376;BME280;30544;42.196;24.336;2023-02-12T00:27:04;100207.47;;;0.25;49.59
26376;BME280;30544;42.196;24.336;2023-02-12T00:29:31;100199.22;;;0.17;50.31
26376;BME280;30544;42.196;24.336;2023-02-12T00:31:58;100200.50;;;0.31;49.67
26376;BME280;30544;42.196;24.336;2023-02-12T00:34:24;100189.06;;;0.27;49.72
26376;BME280;30544;42.196;24.336;2023-02-12T00:36:51;100193.56;;;0.37;49.21
26376;BME280;30544;42.196;24.336;2023-02-12T00:39:19;100189.19;;;0.44;48.95
26376;BME280;30544;42.196;24.336;2023-02-12T00:41:46;100172.13;;;0.42;49.02
26376;BME280;30544;42.196;24.336;2023-02-12T00:44:13;100168.97;;;0.54;48.48
26376;BME280;30544;42.196;24.336;2023-02-12T00:46:39;100167.25;;;0.53;48.49
26376;BME280;30544;42.196;24.336;2023-02-12T00:49:06;100166.59;;;0.59;48.27
26376;BME280;30544;42.196;24.336;2023-02-12T00:51:33;100157.91;;;0.64;48.18
26376;BME280;30544;42.196;24.336;2023-02-12T00:54:00;100165.06;;;0.57;48.24
26376;BME280;30544;42.196;24.336;2023-02-12T00:56:28;100178.69;;;0.57;47.82
26376;BME280;30544;42.196;24.336;2023-02-12T00:58:55;100174.19;;;0.48;47.95
26376;BME280;30544;42.196;24.336;2023-02-12T01:01:21;100168.28;;;0.52;48.59
26376;BME280;30544;42.196;24.336;2023-02-12T01:03:48;100164.03;;;0.58;48.15
26376;BME280;30544;42.196;24.336;2023-02-12T01:06:15;100162.91;;;0.43;48.49
26376;BME280;30544;42.196;24.336;2023-02-12T01:08:42;100151.47;;;0.39;48.69
26376;BME280;30544;42.196;24.336;2023-02-12T01:11:11;100159.84;;;0.46;47.86
26376;BME280;30544;42.196;24.336;2023-02-12T01:13:39;100158.59;;;0.66;46.85
26376;BME280;30544;42.196;24.336;2023-02-12T01:16:09;100157.06;;;0.64;46.68
26376;BME280;30544;42.196;24.336;2023-02-12T01:18:39;100162.19;;;0.67;46.66
26376;BME280;30544;42.196;24.336;2023-02-12T01:21:10;100151.13;;;0.68;46.39
26376;BME280;30544;42.196;24.336;2023-02-12T01:23:37;100143.94;;;0.67;46.00
26376;BME280;30544;42.196;24.336;2023-02-12T01:26:04;100138.38;;;0.77;45.35
26376;BME280;30544;42.196;24.336;2023-02-12T01:28:31;100140.13;;;0.52;46.81
26376;BME280;30544;42.196;24.336;2023-02-12T01:31:00;100136.75;;;0.66;46.27
26376;BME280;30544;42.196;24.336;2023-02-12T01:33:26;100130.28;;;0.67;45.89
26376;BME280;30544;42.196;24.336;2023-02-12T01:35:53;100134.88;;;1.01;44.31
26376;BME280;30544;42.196;24.336;2023-02-12T01:38:20;100125.38;;;1.13;44.13
26376;BME280;30544;42.196;24.336;2023-02-12T01:40:47;100122.00;;;1.27;43.46
26376;BME280;30544;42.196;24.336;2023-02-12T01:43:13;100111.25;;;1.34;43.05
26376;BME280;30544;42.196;24.336;2023-02-12T01:45:47;100107.53;;;1.35;42.58
26376;BME280;30544;42.196;24.336;2023-02-12T01:48:16;100098.84;;;1.56;42.31
26376;BME280;30544;42.196;24.336;2023-02-12T01:50:45;100100.19;;;1.43;41.75
26376;BME280;30544;42.196;24.336;2023-02-12T01:53:14;100104.09;;;1.49;42.45
26376;BME280;30544;42.196;24.336;2023-02-12T01:55:48;100097.59;;;1.50;41.89
26376;BME280;30544;42.196;24.336;2023-02-12T01:58:16;100109.03;;;1.29;42.15
26376;BME280;30544;42.196;24.336;2023-02-12T02:00:43;100113.47;;;1.30;42.55
26376;BME280;30544;42.196;24.336;2023-02-12T02:03:10;100114.50;;;1.29;42.79
26376;BME280;30544;42.196;24.336;2023-02-12T02:05:42;100106.81;;;1.25;42.69
26376;BME280;30544;42.196;24.336;2023-02-12T02:08:11;100093.94;;;1.09;42.59
26376;BME280;30544;42.196;24.336;2023-02-12T02:10:38;100092.97;;;1.26;43.29
26376;BME280;30544;42.196;24.336;2023-02-12T02:13:05;100096.41;;;1.44;42.63
26376;BME280;30544;42.196;24.336;2023-02-12T02:15:50;100097.16;;;2.03;42.98
26376;BME280;30544;42.196;24.336;2023-02-12T02:18:23;100097.13;;;2.11;42.68
26376;BME280;30544;42.196;24.336;2023-02-12T02:21:32;100090.97;;;2.18;42.66
26376;BME280;30544;42.196;24.336;2023-02-12T02:24:29;100090.75;;;2.44;42.60
26376;BME280;30544;42.196;24.336;2023-02-12T02:27:15;100094.50;;;2.51;42.30
26376;BME280;30544;42.196;24.336;2023-02-12T02:32:49;100105.50;;;2.18;43.21
26376;BME280;30544;42.196;24.336;2023-02-12T02:35:26;100108.25;;;2.10;43.30
26376;BME280;30544;42.196;24.336;2023-02-12T02:38:05;100113.88;;;1.60;43.75
26376;BME280;30544;42.196;24.336;2023-02-12T02:40:39;100112.69;;;1.54;43.78
26376;BME280;30544;42.196;24.336;2023-02-12T02:43:14;100105.47;;;1.45;43.45
26376;BME280;30544;42.196;24.336;2023-02-12T02:45:46;100106.00;;;1.40;44.34
26376;BME280;30544;42.196;24.336;2023-02-12T02:48:17;100110.72;;;1.30;44.70
26376;BME280;30544;42.196;24.336;2023-02-12T02:50:49;100103.28;;;1.57;44.76
26376;BME280;30544;42.196;24.336;2023-02-12T02:53:21;100097.47;;;1.76;43.66
26376;BME280;30544;42.196;24.336;2023-02-12T02:55:52;100103.81;;;1.93;43.31
26376;BME280;30544;42.196;24.336;2023-02-12T02:58:21;100110.81;;;1.95;44.10
26376;BME280;30544;42.196;24.336;2023-02-12T03:00:54;100112.88;;;2.09;43.33
26376;BME280;30544;42.196;24.336;2023-02-12T03:03:27;100114.59;;;2.19;43.71
26376;BME280;30544;42.196;24.336;2023-02-12T03:06:00;100102.38;;;2.46;43.54
26376;BME280;30544;42.196;24.336;2023-02-12T03:08:33;100115.75;;;2.40;44.07
26376;BME280;30544;42.196;24.336;2023-02-12T03:11:06;100106.66;;;2.48;43.69
26376;BME280;30544;42.196;24.336;2023-02-12T03:13:39;100105.28;;;2.60;42.66
26376;BME280;30544;42.196;24.336;2023-02-12T03:16:13;100104.91;;;2.63;43.10
26376;BME280;30544;42.196;24.336;2023-02-12T03:18:45;100104.25;;;2.61;42.91
26376;BME280;30544;42.196;24.336;2023-02-12T03:21:19;100109.75;;;2.45;43.84
26376;BME280;30544;42.196;24.336;2023-02-12T03:23:54;100103.47;;;2.36;44.70
26376;BME280;30544;42.196;24.336;2023-02-12T03:26:26;100115.22;;;2.45;44.55
26376;BME280;30544;42.196;24.336;2023-02-12T03:28:56;100111.66;;;2.36;44.86
26376;BME280;30544;42.196;24.336;2023-02-12T03:31:32;100113.53;;;2.28;44.71
26376;BME280;30544;42.196;24.336;2023-02-12T03:34:08;100110.31;;;2.24;44.73
26376;BME280;30544;42.196;24.336;2023-02-12T03:36:41;100108.09;;;2.03;44.82
26376;BME280;30544;42.196;24.336;2023-02-12T03:39:14;100102.09;;;2.16;44.67
26376;BME280;30544;42.196;24.336;2023-02-12T03:41:48;100103.81;;;2.01;44.84
26376;BME280;30544;42.196;24.336;2023-02-12T03:44:22;100106.38;;;1.94;44.55
26376;BME280;30544;42.196;24.336;2023-02-12T03:47:00;100111.16;;;1.60;45.04
26376;BME280;30544;42.196;24.336;2023-02-12T03:49:34;100103.09;;;1.42;44.84
26376;BME280;30544;42.196;24.336;2023-02-12T03:52:04;100103.81;;;1.52;44.83
26376;BME280;30544;42.196;24.336;2023-02-12T03:54:31;100105.00;;;1.66;44.21
26376;BME280;30544;42.196;24.336;2023-02-12T03:57:01;100111.66;;;1.79;44.07
26376;BME280;30544;42.196;24.336;2023-02-12T03:59:29;100113.56;;;1.79;43.57
26376;BME280;30544;42.196;24.336;2023-02-12T04:01:58;100111.47;;;1.65;44.23
26376;BME280;30544;42.196;24.336;2023-02-12T04:04:25;100102.63;;;1.79;44.27
26376;BME280;30544;42.196;24.336;2023-02-12T04:06:53;100102.78;;;1.77;44.62
26376;BME280;30544;42.196;24.336;2023-02-12T04:09:22;100106.72;;;1.75;44.81
26376;BME280;30544;42.196;24.336;2023-02-12T04:12:01;100102.63;;;1.71;44.61
26376;BME280;30544;42.196;24.336;2023-02-12T04:14:40;100109.63;;;1.90;46.08
26376;BME280;30544;42.196;24.336;2023-02-12T04:17:13;100099.94;;;2.67;44.79
26376;BME280;30544;42.196;24.336;2023-02-12T04:19:53;100092.38;;;3.16;43.20
26376;BME280;30544;42.196;24.336;2023-02-12T04:22:34;100088.31;;;3.35;43.26
26376;BME280;30544;42.196;24.336;2023-02-12T04:25:10;100088.28;;;3.43;43.18
26376;BME280;30544;42.196;24.336;2023-02-12T04:27:46;100098.97;;;3.61;42.43
26376;BME280;30544;42.196;24.336;2023-02-12T04:30:20;100091.03;;;3.66;41.94
26376;BME280;30544;42.196;24.336;2023-02-12T04:32:52;100097.16;;;3.76;42.71
26376;BME280;30544;42.196;24.336;2023-02-12T04:35:24;100089.13;;;3.75;42.14
26376;BME280;30544;42.196;24.336;2023-02-12T04:37:57;100085.19;;;3.69;41.64
26376;BME280;30544;42.196;24.336;2023-02-12T04:40:28;100086.75;;;3.72;42.18
26376;BME280;30544;42.196;24.336;2023-02-12T04:42:55;100087.22;;;3.75;41.95
26376;BME280;30544;42.196;24.336;2023-02-12T04:45:25;100098.97;;;3.84;42.07
26376;BME280;30544;42.196;24.336;2023-02-12T04:47:52;100107.72;;;3.87;41.76
26376;BME280;30544;42.196;24.336;2023-02-12T04:50:20;100111.28;;;3.65;42.66
26376;BME280;30544;42.196;24.336;2023-02-12T04:52:47;100104.69;;;3.51;42.69
26376;BME280;30544;42.196;24.336;2023-02-12T04:55:15;100105.19;;;3.55;42.72
26376;BME280;30544;42.196;24.336;2023-02-12T04:57:42;100114.47;;;3.23;42.59
26376;BME280;30544;42.196;24.336;2023-02-12T05:00:12;100124.88;;;3.27;42.18
26376;BME280;30544;42.196;24.336;2023-02-12T05:02:39;100127.53;;;3.13;40.86
26376;BME280;30544;42.196;24.336;2023-02-12T05:05:07;100133.63;;;2.84;42.11
26376;BME280;30544;42.196;24.336;2023-02-12T05:07:34;100130.69;;;2.85;42.67
26376;BME280;30544;42.196;24.336;2023-02-12T05:10:01;100134.41;;;3.09;41.31
26376;BME280;30544;42.196;24.336;2023-02-12T05:12:31;100141.16;;;2.82;41.92
26376;BME280;30544;42.196;24.336;2023-02-12T05:14:58;100136.13;;;2.54;42.48
26376;BME280;30544;42.196;24.336;2023-02-12T05:17:25;100145.38;;;2.37;41.87
26376;BME280;30544;42.196;24.336;2023-02-12T05:19:52;100151.72;;;2.29;41.81
26376;BME280;30544;42.196;24.336;2023-02-12T05:22:18;100156.16;;;2.06;43.15
26376;BME280;30544;42.196;24.336;2023-02-12T05:24:45;100161.44;;;1.99;42.90
26376;BME280;30544;42.196;24.336;2023-02-12T05:27:12;100161.13;;;2.10;42.55
26376;BME280;30544;42.196;24.336;2023-02-12T05:29:40;100172.06;;;2.27;42.50
26376;BME280;30544;42.196;24.336;2023-02-12T05:32:07;100164.88;;;2.26;42.77
26376;BME280;30544;42.196;24.336;2023-02-12T05:34:34;100166.94;;;2.16;42.92
26376;BME280;30544;42.196;24.336;2023-02-12T05:37:01;100161.09;;;2.35;43.28
26376;BME280;30544;42.196;24.336;2023-02-12T05:39:28;100169.00;;;2.38;43.42
26376;BME280;30544;42.196;24.336;2023-02-12T05:41:55;100171.69;;;2.62;43.49
26376;BME280;30544;42.196;24.336;2023-02-12T05:44:21;100170.00;;;2.61;43.74
26376;BME280;30544;42.196;24.336;2023-02-12T05:46:49;100173.41;;;2.71;43.87
26376;BME280;30544;42.196;24.336;2023-02-12T05:49:16;100179.69;;;2.88;44.49
26376;BME280;30544;42.196;24.336;2023-02-12T05:51:43;100192.69;;;2.94;43.97
26376;BME280;30544;42.196;24.336;2023-02-12T05:54:10;100181.91;;;2.93;43.95
26376;BME280;30544;42.196;24.336;2023-02-12T05:56:41;100186.72;;;2.91;44.81
26376;BME280;30544;42.196;24.336;2023-02-12T05:59:13;100186.03;;;2.89;43.98
26376;BME280;30544;42.196;24.336;2023-02-12T06:01:42;100194.44;;;2.87;44.49
26376;BME280;30544;42.196;24.336;2023-02-12T06:04:13;100194.44;;;2.79;45.06
26376;BME280;30544;42.196;24.336;2023-02-12T06:06:40;100199.91;;;2.87;45.59
26376;BME280;30544;42.196;24.336;2023-02-12T06:09:07;100194.81;;;2.60;46.20
26376;BME280;30544;42.196;24.336;2023-02-12T06:11:34;100199.72;;;2.97;44.74
26376;BME280;30544;42.196;24.336;2023-02-12T06:14:01;100197.19;;;2.79;44.13
26376;BME280;30544;42.196;24.336;2023-02-12T06:16:28;100201.94;;;2.93;44.93
26376;BME280;30544;42.196;24.336;2023-02-12T06:18:56;100190.94;;;3.01;44.77
26376;BME280;30544;42.196;24.336;2023-02-12T06:21:25;100190.44;;;3.06;44.45
26376;BME280;30544;42.196;24.336;2023-02-12T06:23:52;100180.03;;;3.32;45.65
26376;BME280;30544;42.196;24.336;2023-02-12T06:26:19;100176.28;;;3.65;45.07
26376;BME280;30544;42.196;24.336;2023-02-12T06:28:47;100184.63;;;4.02;45.10
26376;BME280;30544;42.196;24.336;2023-02-12T06:31:18;100180.25;;;4.39;44.74
26376;BME280;30544;42.196;24.336;2023-02-12T06:33:45;100185.94;;;4.52;43.92
26376;BME280;30544;42.196;24.336;2023-02-12T06:36:12;100187.78;;;4.60;43.32
26376;BME280;30544;42.196;24.336;2023-02-12T06:38:41;100187.84;;;4.89;43.72
26376;BME280;30544;42.196;24.336;2023-02-12T06:41:08;100186.41;;;4.93;43.32
26376;BME280;30544;42.196;24.336;2023-02-12T06:43:35;100179.31;;;5.13;43.25
26376;BME280;30544;42.196;24.336;2023-02-12T06:46:03;100183.28;;;5.26;42.60
26376;BME280;30544;42.196;24.336;2023-02-12T06:48:30;100179.88;;;5.38;42.90
26376;BME280;30544;42.196;24.336;2023-02-12T06:51:03;100184.22;;;5.33;41.93
26376;BME280;30544;42.196;24.336;2023-02-12T06:53:31;100183.50;;;5.24;42.55
26376;BME280;30544;42.196;24.336;2023-02-12T06:56:01;100186.50;;;5.14;42.85
26376;BME280;30544;42.196;24.336;2023-02-12T06:58:28;100183.47;;;5.39;42.31
26376;BME280;30544;42.196;24.336;2023-02-12T07:00:55;100185.19;;;5.40;42.30
26376;BME280;30544;42.196;24.336;2023-02-12T07:03:22;100185.19;;;5.40;42.34
26376;BME280;30544;42.196;24.336;2023-02-12T07:05:49;100181.94;;;5.51;41.77
26376;BME280;30544;42.196;24.336;2023-02-12T07:08:16;100185.63;;;5.58;41.81
26376;BME280;30544;42.196;24.336;2023-02-12T07:10:47;100181.53;;;5.69;41.34
26376;BME280;30544;42.196;24.336;2023-02-12T07:13:15;100187.66;;;5.86;41.03
26376;BME280;30544;42.196;24.336;2023-02-12T07:15:42;100180.09;;;5.73;40.94
26376;BME280;30544;42.196;24.336;2023-02-12T07:18:09;100184.25;;;5.84;41.28
26376;BME280;30544;42.196;24.336;2023-02-12T07:20:35;100182.78;;;6.02;40.99
26376;BME280;30544;42.196;24.336;2023-02-12T07:23:02;100178.28;;;5.95;41.03
26376;BME280;30544;42.196;24.336;2023-02-12T07:25:29;100180.69;;;6.04;40.46
26376;BME280;30544;42.196;24.336;2023-02-12T07:27:56;100175.66;;;6.29;40.45
26376;BME280;30544;42.196;24.336;2023-02-12T07:30:24;100184.53;;;5.89;41.16
26376;BME280;30544;42.196;24.336;2023-02-12T07:32:50;100181.28;;;6.21;40.51
26376;BME280;30544;42.196;24.336;2023-02-12T07:35:17;100175.97;;;6.20;40.77
26376;BME280;30544;42.196;24.336;2023-02-12T07:37:44;100184.53;;;5.89;41.14
26376;BME280;30544;42.196;24.336;2023-02-12T07:40:12;100188.44;;;5.94;41.68
26376;BME280;30544;42.196;24.336;2023-02-12T07:42:39;100184.84;;;5.64;42.65
26376;BME280;30544;42.196;24.336;2023-02-12T07:45:06;100187.59;;;5.79;42.65
26376;BME280;30544;42.196;24.336;2023-02-12T07:47:34;100182.72;;;5.81;44.05
26376;BME280;30544;42.196;24.336;2023-02-12T07:50:03;100192.91;;;5.66;44.72
26376;BME280;30544;42.196;24.336;2023-02-12T07:52:31;100201.41;;;5.86;45.35
26376;BME280;30544;42.196;24.336;2023-02-12T07:54:58;100185.22;;;6.12;45.31
26376;BME280;30544;42.196;24.336;2023-02-12T07:57:25;100193.47;;;5.76;47.09
26376;BME280;30544;42.196;24.336;2023-02-12T07:59:51;100191.66;;;6.19;46.39
26376;BME280;30544;42.196;24.336;2023-02-12T08:02:18;100190.09;;;6.10;46.69
26376;BME280;30544;42.196;24.336;2023-02-12T08:04:46;100204.63;;;6.04;46.92
26376;BME280;30544;42.196;24.336;2023-02-12T08:07:13;100205.16;;;6.36;47.15
26376;BME280;30544;42.196;24.336;2023-02-12T08:09:40;100210.78;;;6.42;46.92
26376;BME280;30544;42.196;24.336;2023-02-12T08:12:07;100212.81;;;5.97;48.73
26376;BME280;30544;42.196;24.336;2023-02-12T08:14:33;100213.69;;;5.68;50.31
26376;BME280;30544;42.196;24.336;2023-02-12T08:17:00;100211.22;;;5.88;50.47
26376;BME280;30544;42.196;24.336;2023-02-12T08:19:27;100208.31;;;6.32;49.84
26376;BME280;30544;42.196;24.336;2023-02-12T08:21:56;100209.72;;;6.22;50.88
26376;BME280;30544;42.196;24.336;2023-02-12T08:24:23;100212.22;;;5.87;51.65
26376;BME280;30544;42.196;24.336;2023-02-12T08:26:50;100216.75;;;6.24;51.18
26376;BME280;30544;42.196;24.336;2023-02-12T08:29:19;100212.28;;;6.45;50.72
26376;BME280;30544;42.196;24.336;2023-02-12T08:31:48;100208.75;;;6.79;50.01
26376;BME280;30544;42.196;24.336;2023-02-12T08:34:16;100206.09;;;6.21;50.92
26376;BME280;30544;42.196;24.336;2023-02-12T08:36:44;100192.50;;;6.20;51.16
26376;BME280;30544;42.196;24.336;2023-02-12T08:39:13;100197.59;;;6.66;50.12
26376;BME280;30544;42.196;24.336;2023-02-12T08:41:40;100210.69;;;6.57;49.92
26376;BME280;30544;42.196;24.336;2023-02-12T08:44:08;100214.47;;;7.05;49.42
26376;BME280;30544;42.196;24.336;2023-02-12T08:46:37;100220.38;;;7.02;48.51
26376;BME280;30544;42.196;24.336;2023-02-12T08:49:06;100220.19;;;7.04;49.02
26376;BME280;30544;42.196;24.336;2023-02-12T08:51:35;100214.00;;;7.64;47.06
26376;BME280;30544;42.196;24.336;2023-02-12T08:54:04;100216.50;;;6.69;49.22
26376;BME280;30544;42.196;24.336;2023-02-12T08:56:33;100224.59;;;6.98;48.65
26376;BME280;30544;42.196;24.336;2023-02-12T08:59:02;100226.66;;;7.17;48.19
26376;BME280;30544;42.196;24.336;2023-02-12T09:01:32;100228.09;;;7.82;46.33
26376;BME280;30544;42.196;24.336;2023-02-12T09:04:00;100232.72;;;7.34;46.54
26376;BME280;30544;42.196;24.336;2023-02-12T09:06:27;100237.88;;;7.44;46.47
26376;BME280;30544;42.196;24.336;2023-02-12T09:08:54;100228.31;;;7.40;46.74
26376;BME280;30544;42.196;24.336;2023-02-12T09:11:24;100232.16;;;7.87;45.29
26376;BME280;30544;42.196;24.336;2023-02-12T09:13:57;100240.19;;;8.29;44.49
26376;BME280;30544;42.196;24.336;2023-02-12T09:16:24;100236.59;;;7.40;45.31
26376;BME280;30544;42.196;24.336;2023-02-12T09:18:51;100251.16;;;7.27;45.97
26376;BME280;30544;42.196;24.336;2023-02-12T09:21:19;100247.09;;;8.05;43.76
26376;BME280;30544;42.196;24.336;2023-02-12T09:23:47;100235.38;;;7.97;43.85
26376;BME280;30544;42.196;24.336;2023-02-12T09:26:15;100249.19;;;7.55;44.56
26376;BME280;30544;42.196;24.336;2023-02-12T09:28:45;100262.03;;;7.70;43.66
26376;BME280;30544;42.196;24.336;2023-02-12T09:31:16;100246.84;;;7.52;44.56
26376;BME280;30544;42.196;24.336;2023-02-12T09:33:43;100255.09;;;8.35;43.35
26376;BME280;30544;42.196;24.336;2023-02-12T09:36:12;100253.09;;;8.22;43.22
26376;BME280;30544;42.196;24.336;2023-02-12T09:38:40;100253.81;;;8.37;43.04
26376;BME280;30544;42.196;24.336;2023-02-12T09:41:22;100246.59;;;8.36;43.12
26376;BME280;30544;42.196;24.336;2023-02-12T09:43:55;100240.31;;;8.76;42.09
26376;BME280;30544;42.196;24.336;2023-02-12T09:46:30;100242.41;;;9.26;41.17
26376;BME280;30544;42.196;24.336;2023-02-12T09:49:06;100245.09;;;9.66;41.13
26376;BME280;30544;42.196;24.336;2023-02-12T09:51:35;100241.28;;;9.54;41.30
26376;BME280;30544;42.196;24.336;2023-02-12T09:54:03;100237.78;;;9.91;39.42
26376;BME280;30544;42.196;24.336;2023-02-12T09:56:33;100241.16;;;8.96;41.40
26376;BME280;30544;42.196;24.336;2023-02-12T09:59:03;100234.53;;;9.30;40.23
26376;BME280;30544;42.196;24.336;2023-02-12T10:01:32;100242.13;;;9.54;41.28
26376;BME280;30544;42.196;24.336;2023-02-12T10:04:00;100245.81;;;8.62;42.32
26376;BME280;30544;42.196;24.336;2023-02-12T10:06:28;100248.75;;;8.41;42.59
26376;BME280;30544;42.196;24.336;2023-02-12T10:09:02;100241.78;;;8.98;41.28
26376;BME280;30544;42.196;24.336;2023-02-12T10:11:46;100237.94;;;8.59;41.42
26376;BME280;30544;42.196;24.336;2023-02-12T10:14:28;100240.69;;;8.59;42.34
26376;BME280;30544;42.196;24.336;2023-02-12T10:17:05;100237.59;;;8.21;42.14
26376;BME280;30544;42.196;24.336;2023-02-12T10:19:52;100228.53;;;8.54;41.95
26376;BME280;30544;42.196;24.336;2023-02-12T10:22:32;100243.22;;;8.48;41.16
26376;BME280;30544;42.196;24.336;2023-02-12T10:25:08;100243.22;;;8.41;42.09
26376;BME280;30544;42.196;24.336;2023-02-12T10:27:41;100246.13;;;8.26;41.68
26376;BME280;30544;42.196;24.336;2023-02-12T10:30:17;100248.75;;;8.41;42.16
26376;BME280;30544;42.196;24.336;2023-02-12T10:32:49;100239.22;;;8.70;41.34
26376;BME280;30544;42.196;24.336;2023-02-12T10:35:20;100249.00;;;8.66;41.73
26376;BME280;30544;42.196;24.336;2023-02-12T10:37:52;100243.06;;;9.28;40.05
26376;BME280;30544;42.196;24.336;2023-02-12T10:40:24;100229.13;;;9.55;39.74
26376;BME280;30544;42.196;24.336;2023-02-12T10:42:53;100236.81;;;9.53;40.49
26376;BME280;30544;42.196;24.336;2023-02-12T10:45:22;100245.81;;;9.02;40.49
26376;BME280;30544;42.196;24.336;2023-02-12T10:47:53;100243.47;;;8.72;41.35
26376;BME280;30544;42.196;24.336;2023-02-12T10:50:42;100244.81;;;8.15;42.35
26376;BME280;30544;42.196;24.336;2023-02-12T10:53:16;100241.56;;;8.66;42.67
26376;BME280;30544;42.196;24.336;2023-02-12T10:55:43;100259.69;;;8.21;43.22
26376;BME280;30544;42.196;24.336;2023-02-12T10:58:18;100261.94;;;8.46;42.24
26376;BME280;30544;42.196;24.336;2023-02-12T11:00:46;100265.09;;;8.36;42.29
26376;BME280;30544;42.196;24.336;2023-02-12T11:03:27;100270.09;;;9.00;41.41
26376;BME280;30544;42.196;24.336;2023-02-12T11:05:55;100253.91;;;8.57;42.29
26376;BME280;30544;42.196;24.336;2023-02-12T11:08:31;100266.28;;;8.94;42.18
26376;BME280;30544;42.196;24.336;2023-02-12T11:11:04;100261.88;;;8.32;43.44
26376;BME280;30544;42.196;24.336;2023-02-12T11:13:32;100256.66;;;8.64;42.11
26376;BME280;30544;42.196;24.336;2023-02-12T11:15:59;100268.81;;;8.96;41.82
26376;BME280;30544;42.196;24.336;2023-02-12T11:18:30;100261.97;;;8.59;42.62
26376;BME280;30544;42.196;24.336;2023-02-12T11:21:00;100268.34;;;8.59;42.36
26376;BME280;30544;42.196;24.336;2023-02-12T11:23:28;100269.81;;;8.55;42.54
26376;BME280;30544;42.196;24.336;2023-02-12T11:25:58;100268.59;;;8.97;42.45
26376;BME280;30544;42.196;24.336;2023-02-12T11:28:26;100271.38;;;8.78;42.03
26376;BME280;30544;42.196;24.336;2023-02-12T11:30:55;100272.84;;;9.33;41.22
26376;BME280;30544;42.196;24.336;2023-02-12T11:33:25;100277.06;;;8.63;42.71
26376;BME280;30544;42.196;24.336;2023-02-12T11:35:56;100274.28;;;8.43;42.78
26376;BME280;30544;42.196;24.336;2023-02-12T11:38:30;100277.75;;;8.85;41.42
26376;BME280;30544;42.196;24.336;2023-02-12T11:41:02;100272.22;;;8.98;41.22
26376;BME280;30544;42.196;24.336;2023-02-12T11:43:30;100269.22;;;9.32;42.02
26376;BME280;30544;42.196;24.336;2023-02-12T11:46:01;100265.63;;;9.32;42.52
26376;BME280;30544;42.196;24.336;2023-02-12T11:48:31;100273.16;;;9.96;40.59
26376;BME280;30544;42.196;24.336;2023-02-12T11:51:02;100281.75;;;9.55;41.07
26376;BME280;30544;42.196;24.336;2023-02-12T11:53:32;100275.13;;;9.69;40.33
26376;BME280;30544;42.196;24.336;2023-02-12T11:56:02;100261.88;;;9.84;39.79
26376;BME280;30544;42.196;24.336;2023-02-12T11:58:29;100267.13;;;10.06;40.12
26376;BME280;30544;42.196;24.336;2023-02-12T12:01:02;100254.31;;;10.24;39.13
26376;BME280;30544;42.196;24.336;2023-02-12T12:03:34;100270.47;;;9.63;39.16
26376;BME280;30544;42.196;24.336;2023-02-12T12:06:15;100262.38;;;9.61;39.66
26376;BME280;30544;42.196;24.336;2023-02-12T12:08:50;100268.16;;;9.47;40.55
26376;BME280;30544;42.196;24.336;2023-02-12T12:11:24;100267.53;;;9.45;40.42
26376;BME280;30544;42.196;24.336;2023-02-12T12:13:57;100272.19;;;9.38;40.96
26376;BME280;30544;42.196;24.336;2023-02-12T12:16:30;100277.31;;;9.34;40.58
26376;BME280;30544;42.196;24.336;2023-02-12T12:19:23;100276.84;;;9.70;40.11
26376;BME280;30544;42.196;24.336;2023-02-12T12:22:14;100277.13;;;10.07;39.85
26376;BME280;30544;42.196;24.336;2023-02-12T12:24:46;100278.91;;;9.94;39.43
26376;BME280;30544;42.196;24.336;2023-02-12T12:27:18;100264.00;;;9.89;39.12
26376;BME280;30544;42.196;24.336;2023-02-12T12:30:10;100277.13;;;10.13;40.14
26376;BME280;30544;42.196;24.336;2023-02-12T12:32:43;100271.69;;;10.38;39.31
26376;BME280;30544;42.196;24.336;2023-02-12T12:35:17;100272.81;;;9.66;39.73
26376;BME280;30544;42.196;24.336;2023-02-12T12:37:47;100284.06;;;9.78;40.04
26376;BME280;30544;42.196;24.336;2023-02-12T12:40:33;100285.22;;;10.15;39.04
26376;BME280;30544;42.196;24.336;2023-02-12T12:43:12;100281.53;;;9.70;40.19
26376;BME280;30544;42.196;24.336;2023-02-12T12:46:03;100291.00;;;10.07;40.06
26376;BME280;30544;42.196;24.336;2023-02-12T12:51:35;100296.41;;;9.95;41.00
26376;BME280;30544;42.196;24.336;2023-02-12T12:54:16;100297.72;;;9.79;41.19
26376;BME280;30544;42.196;24.336;2023-02-12T12:56:55;100304.34;;;9.65;42.21
26376;BME280;30544;42.196;24.336;2023-02-12T12:59:57;100304.97;;;9.80;40.85
26376;BME280;30544;42.196;24.336;2023-02-12T13:05:44;100317.34;;;9.64;42.86
26376;BME280;30544;42.196;24.336;2023-02-12T13:08:25;100316.53;;;9.11;43.10
26376;BME280;30544;42.196;24.336;2023-02-12T13:10:59;100314.41;;;9.26;43.73
26376;BME280;30544;42.196;24.336;2023-02-12T13:13:32;100323.31;;;8.95;43.94
26376;BME280;30544;42.196;24.336;2023-02-12T13:16:06;100320.75;;;8.94;43.41